sensor_id;sensor_type;location;lat;lon;timestamp;P1;durP1;ratioP1;P2;durP2;ratioP2
75516;SDS011;64097;52.548;13.406;2024-03-17T06:03:18;4.72;;;1.42;;
75516;SDS011;64097;52.548;13.406;2024-03-17T06:05:45;6.35;;;1.80;;
75516;SDS011;64097;52.548;13.406;2024-03-17T06:08:11;3.92;;;1.33;;
75516;SDS011;64097;52.548;13.406;2024-03-17T06:10:37;5.07;;;1.48;;
75516;SDS011;64097;52.548;13.406;2024-03-17T06:13:07;5.70;;;1.52;;
75516;SDS011;64097;52.548;13.406;2024-03-17T06:15:37;4.53;;;1.30;;
75516;SDS011;64097;52.548;13.406;2024-03-17T06:18:03;6.18;;;1.50;;
75516;SDS011;64097;52.548;13.406;2024-03-17T06:20:30;7.00;;;1.40;;
75516;SDS011;64097;52.548;13.406;2024-03-17T06:22:56;4.90;;;1.65;;
75516;SDS011;64097;52.548;13.406;2024-03-17T06:25:22;6.05;;;1.80;;
75516;SDS011;64097;52.548;13.406;2024-03-17T06:27:51;5.45;;;1.70;;
75516;SDS011;64097;52.548;13.406;2024-03-17T06:30:17;5.43;;;1.40;;
75516;SDS011;64097;52.548;13.406;2024-03-17T06:32:44;5.13;;;1.58;;
75516;SDS011;64097;52.548;13.406;2024-03-17T06:35:11;6.88;;;1.92;;
75516;SDS011;64097;52.548;13.406;2024-03-17T06:37:40;3.50;;;1.50;;
75516;SDS011;64097;52.548;13.406;2024-03-17T06:40:17;4.68;;;1.63;;
75516;SDS011;64097;52.548;13.406;2024-03-17T06:42:43;9.00;;;1.77;;
75516;SDS011;64097;52.548;13.406;2024-03-17T06:45:09;9.32;;;2.08;;
75516;SDS011;64097;52.548;13.406;2024-03-17T06:47:37;5.82;;;1.85;;
75516;SDS011;64097;52.548;13.406;2024-03-17T06:50:05;9.20;;;1.92;;
75516;SDS011;64097;52.548;13.406;2024-03-17T06:52:31;4.80;;;1.40;;
75516;SDS011;64097;52.548;13.406;2024-03-17T06:54:57;4.93;;;1.75;;
75516;SDS011;64097;52.548;13.406;2024-03-17T06:57:23;5.53;;;1.60;;
75516;SDS011;64097;52.548;13.406;2024-03-17T06:59:49;4.47;;;1.50;;
75516;SDS011;64097;52.548;13.406;2024-03-17T07:02:16;4.20;;;1.52;;
75516;SDS011;64097;52.548;13.406;2024-03-17T07:04:43;5.05;;;1.52;;
75516;SDS011;64097;52.548;13.406;2024-03-17T07:07:09;8.00;;;2.05;;
75516;SDS011;64097;52.548;13.406;2024-03-17T07:09:37;5.70;;;1.60;;
75516;SDS011;64097;52.548;13.406;2024-03-17T07:12:04;4.35;;;1.50;;
75516;SDS011;64097;52.548;13.406;2024-03-17T07:14:34;5.25;;;1.55;;
75516;SDS011;64097;52.548;13.406;2024-03-17T07:17:00;7.88;;;1.95;;
75516;SDS011;64097;52.548;13.406;2024-03-17T07:19:26;6.90;;;1.63;;
75516;SDS011;64097;52.548;13.406;2024-03-17T07:21:51;6.43;;;2.00;;
75516;SDS011;64097;52.548;13.406;2024-03-17T07:24:17;6.28;;;1.77;;
75516;SDS011;64097;52.548;13.406;2024-03-17T07:26:43;10.23;;;2.10;;
75516;SDS011;64097;52.548;13.406;2024-03-17T07:29:09;5.32;;;1.65;;
75516;SDS011;64097;52.548;13.406;2024-03-17T07:31:35;4.63;;;1.60;;
75516;SDS011;64097;52.548;13.406;2024-03-17T07:34:01;5.80;;;1.80;;
75516;SDS011;64097;52.548;13.406;2024-03-17T07:36:27;6.32;;;2.00;;
75516;SDS011;64097;52.548;13.406;2024-03-17T07:38:53;6.47;;;1.73;;
75516;SDS011;64097;52.548;13.406;2024-03-17T07:41:19;7.07;;;1.60;;
75516;SDS011;64097;52.548;13.406;2024-03-17T07:43:44;6.75;;;1.90;;
75516;SDS011;64097;52.548;13.406;2024-03-17T07:46:11;5.40;;;1.75;;
75516;SDS011;64097;52.548;13.406;2024-03-17T07:48:38;4.65;;;1.60;;
75516;SDS011;64097;52.548;13.406;2024-03-17T07:53:35;7.20;;;1.90;;
75516;SDS011;64097;52.548;13.406;2024-03-17T07:56:03;4.22;;;1.40;;
75516;SDS011;64097;52.548;13.406;2024-03-17T07:58:37;4.65;;;1.77;;
75516;SDS011;64097;52.548;13.406;2024-03-17T08:01:07;3.83;;;1.45;;
75516;SDS011;64097;52.548;13.406;2024-03-17T08:03:35;7.18;;;1.73;;
75516;SDS011;64097;52.548;13.406;2024-03-17T08:06:02;3.70;;;1.30;;
75516;SDS011;64097;52.548;13.406;2024-03-17T08:08:29;6.90;;;2.00;;
75516;SDS011;64097;52.548;13.406;2024-03-17T08:10:56;4.10;;;1.60;;
75516;SDS011;64097;52.548;13.406;2024-03-17T08:13:22;3.92;;;1.30;;
75516;SDS011;64097;52.548;13.406;2024-03-17T08:15:58;3.63;;;1.42;;
75516;SDS011;64097;52.548;13.406;2024-03-17T08:18:25;6.35;;;1.70;;
75516;SDS011;64097;52.548;13.406;2024-03-17T08:20:52;6.90;;;2.00;;
75516;SDS011;64097;52.548;13.406;2024-03-17T08:23:19;3.75;;;1.60;;
75516;SDS011;64097;52.548;13.406;2024-03-17T08:25:54;5.88;;;1.50;;
75516;SDS011;64097;52.548;13.406;2024-03-17T08:28:21;7.05;;;1.70;;
75516;SDS011;64097;52.548;13.406;2024-03-17T08:30:57;5.88;;;2.08;;
75516;SDS011;64097;52.548;13.406;2024-03-17T08:33:24;5.70;;;2.03;;
75516;SDS011;64097;52.548;13.406;2024-03-17T08:36:23;7.68;;;1.88;;
75516;SDS011;64097;52.548;13.406;2024-03-17T08:38:44;4.50;;;1.63;;
75516;SDS011;64097;52.548;13.406;2024-03-17T08:41:09;8.07;;;1.83;;
75516;SDS011;64097;52.548;13.406;2024-03-17T08:43:36;5.47;;;2.00;;
75516;SDS011;64097;52.548;13.406;2024-03-17T08:46:05;4.18;;;1.38;;
75516;SDS011;64097;52.548;13.406;2024-03-17T08:48:35;6.95;;;1.60;;
75516;SDS011;64097;52.548;13.406;2024-03-17T08:51:02;5.43;;;1.63;;
75516;SDS011;64097;52.548;13.406;2024-03-17T08:53:30;4.13;;;1.20;;
75516;SDS011;64097;52.548;13.406;2024-03-17T08:55:56;4.28;;;1.48;;
75516;SDS011;64097;52.548;13.406;2024-03-17T08:58:22;6.38;;;1.70;;
75516;SDS011;64097;52.548;13.406;2024-03-17T09:00:48;5.55;;;1.73;;
75516;SDS011;64097;52.548;13.406;2024-03-17T09:03:14;4.65;;;1.30;;
75516;SDS011;64097;52.548;13.406;2024-03-17T09:05:42;4.68;;;1.38;;
75516;SDS011;64097;52.548;13.406;2024-03-17T09:08:16;4.88;;;1.65;;
75516;SDS011;64097;52.548;13.406;2024-03-17T09:10:45;6.00;;;1.70;;
75516;SDS011;64097;52.548;13.406;2024-03-17T09:13:21;4.47;;;1.40;;
75516;SDS011;64097;52.548;13.406;2024-03-17T09:15:55;4.22;;;1.45;;
75516;SDS011;64097;52.548;13.406;2024-03-17T09:18:30;3.92;;;1.33;;
75516;SDS011;64097;52.548;13.406;2024-03-17T09:21:01;5.05;;;1.55;;
75516;SDS011;64097;52.548;13.406;2024-03-17T09:23:29;5.30;;;1.15;;
75516;SDS011;64097;52.548;13.406;2024-03-17T09:25:59;3.75;;;1.23;;
75516;SDS011;64097;52.548;13.406;2024-03-17T09:28:27;4.15;;;1.63;;
75516;SDS011;64097;52.548;13.406;2024-03-17T09:30:54;4.45;;;1.38;;
75516;SDS011;64097;52.548;13.406;2024-03-17T09:33:20;4.85;;;1.27;;
75516;SDS011;64097;52.548;13.406;2024-03-17T09:35:57;3.47;;;1.50;;
75516;SDS011;64097;52.548;13.406;2024-03-17T09:38:25;4.32;;;1.50;;
75516;SDS011;64097;52.548;13.406;2024-03-17T09:40:52;3.40;;;1.10;;
75516;SDS011;64097;52.548;13.406;2024-03-17T09:43:20;2.88;;;1.42;;
75516;SDS011;64097;52.548;13.406;2024-03-17T09:45:47;4.60;;;1.40;;
75516;SDS011;64097;52.548;13.406;2024-03-17T09:48:16;4.43;;;1.48;;
75516;SDS011;64097;52.548;13.406;2024-03-17T09:50:44;3.08;;;1.13;;
75516;SDS011;64097;52.548;13.406;2024-03-17T09:53:20;3.13;;;1.02;;
75516;SDS011;64097;52.548;13.406;2024-03-17T09:58:21;5.97;;;1.40;;
75516;SDS011;64097;52.548;13.406;2024-03-17T10:00:46;3.20;;;1.20;;
75516;SDS011;64097;52.548;13.406;2024-03-17T10:03:15;4.43;;;1.23;;
75516;SDS011;64097;52.548;13.406;2024-03-17T10:06:26;3.45;;;1.10;;
75516;SDS011;64097;52.548;13.406;2024-03-17T10:08:58;4.00;;;1.33;;
75516;SDS011;64097;52.548;13.406;2024-03-17T10:11:32;4.90;;;1.48;;
75516;SDS011;64097;52.548;13.406;2024-03-17T10:14:01;3.90;;;1.20;;
75516;SDS011;64097;52.548;13.406;2024-03-17T10:16:28;3.55;;;1.15;;
75516;SDS011;64097;52.548;13.406;2024-03-17T10:19:11;4.10;;;1.40;;
75516;SDS011;64097;52.548;13.406;2024-03-17T10:21:42;3.42;;;1.30;;
75516;SDS011;64097;52.548;13.406;2024-03-17T10:24:22;4.00;;;1.30;;
75516;SDS011;64097;52.548;13.406;2024-03-17T10:26:53;5.53;;;1.42;;
75516;SDS011;64097;52.548;13.406;2024-03-17T10:29:27;2.08;;;0.90;;
75516;SDS011;64097;52.548;13.406;2024-03-17T10:31:55;3.28;;;1.00;;
75516;SDS011;64097;52.548;13.406;2024-03-17T10:34:25;3.55;;;1.30;;
75516;SDS011;64097;52.548;13.406;2024-03-17T10:37:05;3.55;;;1.15;;
75516;SDS011;64097;52.548;13.406;2024-03-17T10:39:31;3.10;;;1.00;;
75516;SDS011;64097;52.548;13.406;2024-03-17T10:42:00;3.47;;;1.17;;
75516;SDS011;64097;52.548;13.406;2024-03-17T10:44:27;3.47;;;1.27;;
75516;SDS011;64097;52.548;13.406;2024-03-17T10:46:56;5.43;;;1.58;;
75516;SDS011;64097;52.548;13.406;2024-03-17T10:49:25;2.75;;;1.17;;
75516;SDS011;64097;52.548;13.406;2024-03-17T10:52:02;3.90;;;1.20;;
75516;SDS011;64097;52.548;13.406;2024-03-17T10:54:33;3.50;;;1.27;;
75516;SDS011;64097;52.548;13.406;2024-03-17T10:57:24;2.28;;;1.10;;
75516;SDS011;64097;52.548;13.406;2024-03-17T10:59:48;2.60;;;1.20;;
75516;SDS011;64097;52.548;13.406;2024-03-17T11:04:48;4.95;;;1.27;;
75516;SDS011;64097;52.548;13.406;2024-03-17T11:07:16;3.15;;;1.17;;
75516;SDS011;64097;52.548;13.406;2024-03-17T11:09:44;2.45;;;1.00;;
75516;SDS011;64097;52.548;13.406;2024-03-17T11:17:45;1.63;;;0.77;;
75516;SDS011;64097;52.548;13.406;2024-03-17T11:20:18;3.05;;;0.98;;
75516;SDS011;64097;52.548;13.406;2024-03-17T11:22:51;2.88;;;0.85;;
75516;SDS011;64097;52.548;13.406;2024-03-17T11:28:06;3.35;;;1.00;;
75516;SDS011;64097;52.548;13.406;2024-03-17T11:30:42;2.33;;;1.00;;
75516;SDS011;64097;52.548;13.406;2024-03-17T11:38:51;2.33;;;1.05;;
75516;SDS011;64097;52.548;13.406;2024-03-17T11:47:01;2.22;;;0.90;;
75516;SDS011;64097;52.548;13.406;2024-03-17T11:49:32;1.70;;;0.60;;
75516;SDS011;64097;52.548;13.406;2024-03-17T11:52:03;2.05;;;0.70;;
75516;SDS011;64097;52.548;13.406;2024-03-17T11:54:32;2.15;;;0.90;;
75516;SDS011;64097;52.548;13.406;2024-03-17T11:57:01;1.83;;;0.85;;
75516;SDS011;64097;52.548;13.406;2024-03-17T11:59:28;2.17;;;0.88;;
75516;SDS011;64097;52.548;13.406;2024-03-17T12:01:54;1.98;;;0.80;;
75516;SDS011;64097;52.548;13.406;2024-03-17T12:04:20;2.75;;;1.00;;
75516;SDS011;64097;52.548;13.406;2024-03-17T12:06:48;2.83;;;1.10;;
75516;SDS011;64097;52.548;13.406;2024-03-17T12:09:19;2.08;;;0.77;;
75516;SDS011;64097;52.548;13.406;2024-03-17T12:12:31;2.13;;;0.90;;
75516;SDS011;64097;52.548;13.406;2024-03-17T12:14:36;2.20;;;0.90;;
75516;SDS011;64097;52.548;13.406;2024-03-17T12:17:03;2.80;;;1.05;;
75516;SDS011;64097;52.548;13.406;2024-03-17T12:19:30;1.77;;;0.73;;
75516;SDS011;64097;52.548;13.406;2024-03-17T12:21:56;1.80;;;0.80;;
75516;SDS011;64097;52.548;13.406;2024-03-17T12:24:25;2.33;;;0.80;;
75516;SDS011;64097;52.548;13.406;2024-03-17T12:26:55;3.05;;;0.80;;
75516;SDS011;64097;52.548;13.406;2024-03-17T12:32:16;1.02;;;0.60;;
75516;SDS011;64097;52.548;13.406;2024-03-17T12:34:43;2.20;;;0.90;;
75516;SDS011;64097;52.548;13.406;2024-03-17T12:37:17;2.13;;;0.90;;
75516;SDS011;64097;52.548;13.406;2024-03-17T12:39:44;2.20;;;0.82;;
75516;SDS011;64097;52.548;13.406;2024-03-17T12:42:16;3.20;;;0.95;;
75516;SDS011;64097;52.548;13.406;2024-03-17T12:44:49;2.25;;;0.98;;
75516;SDS011;64097;52.548;13.406;2024-03-17T12:47:19;2.17;;;0.88;;
75516;SDS011;64097;52.548;13.406;2024-03-17T12:49:55;1.65;;;0.80;;
75516;SDS011;64097;52.548;13.406;2024-03-17T12:52:29;3.22;;;1.02;;
75516;SDS011;64097;52.548;13.406;2024-03-17T12:54:56;2.58;;;0.80;;
75516;SDS011;64097;52.548;13.406;2024-03-17T12:57:46;1.70;;;0.90;;
75516;SDS011;64097;52.548;13.406;2024-03-17T13:00:31;2.58;;;0.70;;
75516;SDS011;64097;52.548;13.406;2024-03-17T13:02:57;1.65;;;0.80;;
75516;SDS011;64097;52.548;13.406;2024-03-17T13:05:23;1.77;;;1.00;;
75516;SDS011;64097;52.548;13.406;2024-03-17T13:07:49;1.73;;;0.90;;
75516;SDS011;64097;52.548;13.406;2024-03-17T13:10:16;1.30;;;0.65;;
75516;SDS011;64097;52.548;13.406;2024-03-17T13:12:43;2.17;;;0.80;;
75516;SDS011;64097;52.548;13.406;2024-03-17T13:15:14;3.85;;;1.02;;
75516;SDS011;64097;52.548;13.406;2024-03-17T13:17:42;2.22;;;0.90;;
75516;SDS011;64097;52.548;13.406;2024-03-17T13:20:15;2.15;;;0.90;;
75516;SDS011;64097;52.548;13.406;2024-03-17T13:22:42;3.30;;;1.20;;
75516;SDS011;64097;52.548;13.406;2024-03-17T13:25:14;2.15;;;0.82;;
75516;SDS011;64097;52.548;13.406;2024-03-17T13:27:44;2.97;;;0.98;;
75516;SDS011;64097;52.548;13.406;2024-03-17T13:30:11;2.95;;;0.93;;
75516;SDS011;64097;52.548;13.406;2024-03-17T13:32:38;2.83;;;1.00;;
75516;SDS011;64097;52.548;13.406;2024-03-17T13:35:05;3.10;;;0.85;;
75516;SDS011;64097;52.548;13.406;2024-03-17T13:37:33;1.77;;;0.70;;
75516;SDS011;64097;52.548;13.406;2024-03-17T13:40:00;3.38;;;0.93;;
75516;SDS011;64097;52.548;13.406;2024-03-17T13:42:28;2.45;;;1.00;;
75516;SDS011;64097;52.548;13.406;2024-03-17T13:44:54;2.33;;;1.00;;
75516;SDS011;64097;52.548;13.406;2024-03-17T13:47:19;1.98;;;0.85;;
75516;SDS011;64097;52.548;13.406;2024-03-17T13:49:45;1.75;;;0.90;;
75516;SDS011;64097;52.548;13.406;2024-03-17T13:52:11;3.17;;;0.98;;
75516;SDS011;64097;52.548;13.406;2024-03-17T13:54:37;1.60;;;0.70;;
75516;SDS011;64097;52.548;13.406;2024-03-17T13:57:03;1.80;;;0.80;;
75516;SDS011;64097;52.548;13.406;2024-03-17T13:59:29;2.08;;;0.80;;
